Time;durP1;ratioP1;P1;durP2;ratioP2;P2;SDS_P1;SDS_P2;PMS_P1;PMS_P2;Temp;Humidity;BMP_temperature;BMP_pressure;BME280_temperature;BME280_humidity;BME280_pressure;Samples;Min_cycle;Max_cycle;Signal;HPM_P1;HPM_P2
2022/12/04 00:00:33;;;;;;;23.55;13.13;;;2.90;99.90;;;;;;5021177;28;20515;-65
2022/12/04 00:03:01;;;;;;;21.80;12.55;;;2.80;99.90;;;;;;5021473;28;20488;-65
2022/12/04 00:05:28;;;;;;;24.05;13.68;;;2.80;99.90;;;;;;5022398;28;20103;-65
2022/12/04 00:07:56;;;;;;;25.33;13.55;;;2.80;99.90;;;;;;5021386;28;20054;-65
2022/12/04 00:10:23;;;;;;;22.95;12.63;;;2.80;99.90;;;;;;5028205;28;20492;-66
2022/12/04 00:12:51;;;;;;;20.48;12.60;;;2.80;99.90;;;;;;5020725;28;20046;-66
2022/12/04 00:15:18;;;;;;;23.83;13.05;;;2.80;99.90;;;;;;5024395;28;20054;-64
2022/12/04 00:17:53;;;;;;;23.17;13.45;;;2.80;99.90;;;;;;5018508;28;20445;-65
2022/12/04 00:20:21;;;;;;;22.00;12.85;;;2.80;99.90;;;;;;5024671;28;20045;-65
2022/12/04 00:22:49;;;;;;;25.48;13.27;;;2.80;99.90;;;;;;5026458;28;20121;-65
2022/12/04 00:25:16;;;;;;;23.25;13.77;;;2.90;99.90;;;;;;5025082;28;20392;-65
2022/12/04 00:27:44;;;;;;;36.40;17.15;;;2.90;99.90;;;;;;5008145;28;20073;-65
2022/12/04 00:30:11;;;;;;;28.55;14.55;;;2.90;99.90;;;;;;5009910;28;20053;-65
2022/12/04 00:32:39;;;;;;;26.15;13.80;;;2.90;99.90;;;;;;5014660;28;20046;-65
2022/12/04 00:35:06;;;;;;;22.33;12.50;;;2.90;99.90;;;;;;5018499;28;20143;-65
2022/12/04 00:37:34;;;;;;;22.50;12.77;;;2.80;99.90;;;;;;5017126;28;20052;-66
2022/12/04 00:40:01;;;;;;;24.15;13.65;;;2.90;99.90;;;;;;5017927;28;20045;-65
2022/12/04 00:42:28;;;;;;;25.00;13.18;;;2.90;99.90;;;;;;5030139;28;20128;-65
2022/12/04 00:44:55;;;;;;;23.05;12.85;;;2.90;99.90;;;;;;5022466;28;20104;-65
2022/12/04 00:47:23;;;;;;;21.70;12.07;;;2.90;99.90;;;;;;5015260;28;20065;-66
2022/12/04 00:49:50;;;;;;;23.55;12.85;;;2.90;99.90;;;;;;5017667;28;20085;-65
2022/12/04 00:52:17;;;;;;;20.50;12.02;;;3.00;99.90;;;;;;5023156;28;20046;-65
2022/12/04 00:54:44;;;;;;;21.90;11.82;;;3.00;99.90;;;;;;5011437;28;20054;-66
2022/12/04 00:57:12;;;;;;;21.35;11.93;;;2.90;99.90;;;;;;5007652;28;20516;-65
2022/12/04 00:59:39;;;;;;;19.75;11.68;;;3.00;99.90;;;;;;5027116;28;20037;-66
2022/12/04 01:02:06;;;;;;;21.25;12.20;;;3.00;99.90;;;;;;5012922;28;20122;-67
2022/12/04 01:04:34;;;;;;;22.02;12.60;;;3.00;99.90;;;;;;5011511;28;20099;-65
2022/12/04 01:07:01;;;;;;;19.83;11.68;;;3.00;99.90;;;;;;5011267;28;20057;-66
2022/12/04 01:09:32;;;;;;;20.85;12.70;;;2.90;99.90;;;;;;5011133;28;20487;-65
2022/12/04 01:11:59;;;;;;;23.00;12.50;;;2.90;99.90;;;;;;5017608;28;20575;-67
2022/12/04 01:14:26;;;;;;;22.02;11.95;;;3.00;99.90;;;;;;5022852;28;20081;-66
2022/12/04 01:16:54;;;;;;;23.65;13.73;;;3.00;99.90;;;;;;5028504;28;20045;-66
2022/12/04 01:19:21;;;;;;;21.33;12.65;;;3.00;99.90;;;;;;5026189;28;20034;-65
2022/12/04 01:21:48;;;;;;;20.08;11.82;;;2.90;99.90;;;;;;5009721;28;20097;-67
2022/12/04 01:24:16;;;;;;;22.85;12.93;;;3.00;99.90;;;;;;5023201;28;20061;-65
2022/12/04 01:26:43;;;;;;;24.33;13.05;;;2.90;99.90;;;;;;5028494;28;20570;-65
2022/12/04 01:29:10;;;;;;;22.02;12.65;;;2.90;99.90;;;;;;5030803;28;20074;-66
2022/12/04 01:31:38;;;;;;;23.00;13.55;;;2.90;99.90;;;;;;5023287;28;20068;-65
2022/12/04 01:34:05;;;;;;;20.60;13.07;;;3.00;99.90;;;;;;5027737;28;20045;-66
2022/12/04 01:36:32;;;;;;;20.67;11.90;;;3.00;99.90;;;;;;5022048;28;20048;-65
2022/12/04 01:39:00;;;;;;;18.25;11.80;;;3.00;99.90;;;;;;5010767;28;20045;-66
2022/12/04 01:41:29;;;;;;;22.25;12.48;;;3.00;99.90;;;;;;5018732;28;20045;-65
2022/12/04 01:44:26;;;;;;;23.80;12.77;;;3.00;99.90;;;;;;4994401;28;20058;-66
2022/12/04 01:46:56;;;;;;;20.23;12.65;;;3.00;99.90;;;;;;5010470;28;20049;-64
2022/12/04 01:49:35;;;;;;;21.30;12.13;;;3.00;99.90;;;;;;5011783;28;20050;-66
2022/12/04 01:52:14;;;;;;;19.98;11.82;;;3.00;99.90;;;;;;5022386;28;20075;-65
2022/12/04 01:54:45;;;;;;;22.40;13.02;;;3.00;99.90;;;;;;4994691;28;20054;-65
2022/12/04 01:57:18;;;;;;;22.80;12.80;;;3.00;99.90;;;;;;5010476;28;20374;-65
2022/12/04 02:00:08;;;;;;;22.90;12.88;;;3.10;99.90;;;;;;5008104;28;20367;-64
2022/12/04 02:02:40;;;;;;;21.50;12.18;;;3.10;99.90;;;;;;5011876;28;20042;-66
2022/12/04 02:05:09;;;;;;;;;;;3.10;99.90;;;;;;5031899;28;20041;-66
2022/12/04 02:07:38;;;;;;;21.10;12.57;;;3.10;99.90;;;;;;5016649;28;19921;-65
2022/12/04 02:10:07;;;;;;;22.08;11.95;;;3.10;99.90;;;;;;5011633;28;20076;-66
2022/12/04 02:12:43;;;;;;;19.20;12.40;;;3.10;99.90;;;;;;5020086;28;20048;-65
2022/12/04 02:15:44;;;;;;;23.30;13.35;;;3.10;99.90;;;;;;5001078;28;20041;-65
2022/12/04 02:18:41;;;;;;;22.55;12.68;;;3.10;99.90;;;;;;5024407;28;20045;-65
2022/12/04 02:21:29;;;;;;;21.98;12.90;;;3.20;99.90;;;;;;5006464;28;20069;-64
2022/12/04 02:24:09;;;;;;;22.92;13.10;;;3.10;99.90;;;;;;5019773;28;20045;-65
2022/12/04 02:26:47;;;;;;;22.30;13.65;;;3.20;99.90;;;;;;5028798;28;20584;-65
2022/12/04 02:29:40;;;;;;;23.27;12.40;;;3.20;99.90;;;;;;5020702;28;20131;-66
2022/12/04 02:32:25;;;;;;;21.48;12.35;;;3.20;99.90;;;;;;5020637;28;20037;-65
2022/12/04 02:35:00;;;;;;;21.20;12.15;;;3.20;99.90;;;;;;5027162;28;20060;-65
2022/12/04 02:37:38;;;;;;;19.38;11.75;;;3.20;99.90;;;;;;5013311;28;20041;-65
2022/12/04 02:40:14;;;;;;;19.90;12.45;;;3.20;99.90;;;;;;5011004;28;20065;-65
2022/12/04 02:42:51;;;;;;;22.85;12.68;;;3.20;99.90;;;;;;5028398;28;20037;-64
2022/12/04 02:45:47;;;;;;;19.45;12.70;;;3.20;99.90;;;;;;4987698;28;20504;-65
2022/12/04 02:48:18;;;;;;;19.25;11.27;;;3.20;99.90;;;;;;5008851;28;20057;-64
2022/12/04 02:50:50;;;;;;;23.27;12.30;;;3.20;99.90;;;;;;5010622;28;20050;-64
2022/12/04 02:53:22;;;;;;;21.30;12.13;;;3.20;99.90;;;;;;5024897;28;20037;-65
2022/12/04 02:55:54;;;;;;;21.58;12.13;;;3.20;99.90;;;;;;5027077;28;20065;-65
2022/12/04 02:58:38;;;;;;;22.55;12.70;;;3.30;99.90;;;;;;5011948;28;20061;-64
2022/12/04 03:01:22;;;;;;;22.83;12.05;;;3.20;99.90;;;;;;5006679;28;20054;-65
2022/12/04 03:04:16;;;;;;;21.23;12.55;;;3.30;99.90;;;;;;5023040;28;20415;-65
2022/12/04 03:06:47;;;;;;;23.83;12.80;;;3.30;99.90;;;;;;5018712;28;20067;-66
2022/12/04 03:09:22;;;;;;;19.42;11.32;;;3.30;99.90;;;;;;5030030;28;20045;-64
2022/12/04 03:11:58;;;;;;;22.13;11.10;;;3.40;99.90;;;;;;5029505;28;20037;-64
2022/12/04 03:14:32;;;;;;;20.85;11.80;;;3.40;99.90;;;;;;5024692;28;20038;-64
2022/12/04 03:17:05;;;;;;;17.95;11.10;;;3.30;99.90;;;;;;5016443;28;20416;-66
2022/12/04 03:19:42;;;;;;;18.17;10.52;;;3.30;99.90;;;;;;5028990;28;20057;-65
2022/12/04 03:22:13;;;;;;;18.95;11.63;;;3.30;99.90;;;;;;5027728;28;20060;-66
2022/12/04 03:24:51;;;;;;;20.10;11.70;;;3.30;99.90;;;;;;5006263;28;20103;-65
2022/12/04 03:27:43;;;;;;;19.75;11.82;;;3.30;99.90;;;;;;5020381;28;20588;-65
2022/12/04 03:30:17;;;;;;;18.92;11.70;;;3.30;99.90;;;;;;5028183;28;20418;-64
2022/12/04 03:33:00;;;;;;;20.27;11.57;;;3.30;99.90;;;;;;5029768;28;20049;-64
2022/12/04 03:35:36;;;;;;;16.92;10.68;;;3.30;99.90;;;;;;5027587;28;20405;-66
2022/12/04 03:38:31;;;;;;;19.58;11.52;;;3.30;99.90;;;;;;5010058;28;20045;-65
2022/12/04 03:41:07;;;;;;;19.38;10.98;;;3.30;99.90;;;;;;5022995;28;20042;-66
2022/12/04 03:43:59;;;;;;;18.52;11.25;;;3.30;99.90;;;;;;5021725;28;20096;-63
2022/12/04 03:46:34;;;;;;;;;;;3.30;99.90;;;;;;5028766;28;20132;-65
2022/12/04 03:49:28;;;;;;;21.35;11.60;;;3.30;99.90;;;;;;5027668;28;20245;-65
2022/12/04 03:52:18;;;;;;;19.80;11.48;;;3.30;99.90;;;;;;5016649;28;20064;-64
2022/12/04 03:54:50;;;;;;;21.83;11.60;;;3.30;99.90;;;;;;5027399;28;20046;-64
2022/12/04 03:57:21;;;;;;;;;;;3.30;99.90;;;;;;5024790;28;20053;-65
2022/12/04 03:59:52;;;;;;;19.40;10.88;;;3.30;99.90;;;;;;5026722;28;19931;-65
2022/12/04 04:02:25;;;;;;;18.65;10.70;;;3.30;99.90;;;;;;5018266;28;20041;-66
2022/12/04 04:04:56;;;;;;;20.95;11.70;;;3.30;99.90;;;;;;5028889;28;20041;-64
2022/12/04 04:07:33;;;;;;;18.55;11.30;;;3.30;99.90;;;;;;5019596;28;20474;-66
2022/12/04 04:10:16;;;;;;;17.40;10.95;;;3.30;99.90;;;;;;5032873;28;20816;-64
2022/12/04 04:24:35;;;;;;;17.13;11.18;;;3.30;99.90;;;;;;5032335;28;20037;-64
2022/12/04 04:27:02;;;;;;;17.77;10.73;;;3.30;99.90;;;;;;5032011;28;20033;-65
2022/12/04 04:29:30;;;;;;;18.10;10.05;;;3.30;99.90;;;;;;5028823;28;20073;-64
2022/12/04 04:32:15;;;;;;;18.90;11.05;;;3.30;99.90;;;;;;5025880;28;20512;-65
2022/12/04 04:34:55;;;;;;;17.40;11.05;;;3.30;99.90;;;;;;5027726;28;20046;-65
2022/12/04 04:37:46;;;;;;;17.58;11.07;;;3.20;99.90;;;;;;5031939;28;20751;-64
2022/12/04 04:40:20;;;;;;;18.63;11.40;;;3.30;99.90;;;;;;5030144;28;20057;-64
2022/12/04 04:42:59;;;;;;;18.30;11.50;;;3.30;99.90;;;;;;5010316;28;20038;-66
2022/12/04 04:45:35;;;;;;;20.50;12.68;;;3.30;99.90;;;;;;5014436;28;20384;-64
2022/12/04 04:48:11;;;;;;;21.98;13.02;;;3.30;99.90;;;;;;5017005;28;20084;-65
2022/12/04 04:50:38;;;;;;;22.58;12.38;;;3.30;99.90;;;;;;5009141;28;20056;-68
2022/12/04 04:53:10;;;;;;;19.30;11.15;;;3.40;99.90;;;;;;5030352;28;20045;-65
2022/12/04 04:55:38;;;;;;;19.02;11.85;;;3.40;99.90;;;;;;5024291;28;20053;-64
2022/12/04 04:58:14;;;;;;;16.45;10.27;;;3.40;99.90;;;;;;5015495;28;20038;-68
2022/12/04 05:01:10;;;;;;;18.15;11.45;;;3.40;99.90;;;;;;5023381;28;20394;-66
2022/12/04 05:03:38;;;;;;;17.45;10.32;;;3.40;99.90;;;;;;5019381;28;20527;-66
2022/12/04 05:06:06;;;;;;;18.33;10.93;;;3.40;99.90;;;;;;5031326;28;20056;-64
2022/12/04 05:08:34;;;;;;;17.98;11.10;;;3.40;99.90;;;;;;5031378;28;20459;-64
2022/12/04 05:11:02;;;;;;;20.50;11.65;;;3.40;99.90;;;;;;5019983;28;20107;-65
2022/12/04 05:13:30;;;;;;;18.10;10.60;;;3.30;99.90;;;;;;5019251;28;20049;-66
2022/12/04 05:16:00;;;;;;;18.95;10.43;;;3.40;99.90;;;;;;5015982;28;20052;-66
2022/12/04 05:18:29;;;;;;;18.70;11.25;;;3.40;99.90;;;;;;5022434;28;20049;-68
2022/12/04 05:20:57;;;;;;;15.88;10.18;;;3.40;99.90;;;;;;5029592;28;20424;-66
2022/12/04 05:23:24;;;;;;;17.58;10.88;;;3.40;99.90;;;;;;5020643;28;20125;-65
2022/12/04 05:25:59;;;;;;;17.77;10.70;;;3.40;99.90;;;;;;5032136;28;20509;-65
2022/12/04 05:28:26;;;;;;;18.85;10.98;;;3.40;99.90;;;;;;5031139;28;20370;-64
2022/12/04 05:30:58;;;;;;;18.02;11.02;;;3.40;99.90;;;;;;5019870;28;20258;-64
2022/12/04 05:33:26;;;;;;;17.58;10.85;;;3.40;99.90;;;;;;5030814;28;20087;-65
2022/12/04 05:36:04;;;;;;;16.90;10.63;;;3.40;99.90;;;;;;5023513;28;20041;-65
2022/12/04 05:38:31;;;;;;;17.75;11.40;;;3.40;99.90;;;;;;5006622;28;20428;-65
2022/12/04 05:41:01;;;;;;;16.63;10.38;;;3.40;99.90;;;;;;5013135;28;20507;-65
2022/12/04 05:43:28;;;;;;;17.92;10.73;;;3.40;99.90;;;;;;5031939;28;20484;-64
2022/12/04 05:46:03;;;;;;;17.23;10.52;;;3.40;99.90;;;;;;5022612;28;20041;-64
2022/12/04 05:48:31;;;;;;;17.48;10.50;;;3.50;99.90;;;;;;5030616;28;20470;-65
2022/12/04 05:50:59;;;;;;;17.77;10.18;;;3.40;99.90;;;;;;5035043;28;20534;-65
2022/12/04 05:53:26;;;;;;;17.52;11.13;;;3.50;99.90;;;;;;5031244;28;20045;-64
2022/12/04 05:56:01;;;;;;;16.88;10.52;;;3.50;99.90;;;;;;5026208;28;20045;-65
2022/12/04 05:58:29;;;;;;;17.73;10.40;;;3.50;99.90;;;;;;5031363;28;20124;-64
2022/12/04 06:00:56;;;;;;;19.17;11.30;;;3.50;99.90;;;;;;5008347;28;20145;-64
2022/12/04 06:03:23;;;;;;;18.58;11.23;;;3.50;99.90;;;;;;5029666;28;20047;-65
2022/12/04 06:05:50;;;;;;;19.05;12.25;;;3.50;99.90;;;;;;5029690;28;20137;-64
2022/12/04 06:08:18;;;;;;;19.45;11.98;;;3.50;99.90;;;;;;5028936;28;20496;-65
2022/12/04 06:10:45;;;;;;;20.17;12.35;;;3.50;99.90;;;;;;5030466;28;20055;-64
2022/12/04 06:13:12;;;;;;;20.27;12.32;;;3.50;99.90;;;;;;5025417;28;20072;-64
2022/12/04 06:15:40;;;;;;;20.67;12.10;;;3.50;99.90;;;;;;5030494;28;20053;-64
2022/12/04 06:18:07;;;;;;;19.90;12.15;;;3.50;99.90;;;;;;5023443;28;20045;-64
2022/12/04 06:20:35;;;;;;;18.17;11.40;;;3.60;99.90;;;;;;5029672;28;20096;-64
2022/12/04 06:23:02;;;;;;;18.80;11.90;;;3.60;99.90;;;;;;5029988;28;20315;-64
2022/12/04 06:25:29;;;;;;;19.20;12.70;;;3.60;99.90;;;;;;5031391;28;20038;-64
2022/12/04 06:27:57;;;;;;;21.55;13.48;;;3.60;99.90;;;;;;5029400;28;20099;-65
2022/12/04 06:30:24;;;;;;;23.40;12.93;;;3.60;99.90;;;;;;5022141;28;20121;-64
2022/12/04 06:32:51;;;;;;;18.67;11.77;;;3.60;99.90;;;;;;5030590;28;20049;-66
2022/12/04 06:35:18;;;;;;;18.30;11.65;;;3.60;99.90;;;;;;5030280;28;20057;-65
2022/12/04 06:37:46;;;;;;;18.98;11.48;;;3.60;99.90;;;;;;5024496;28;20046;-66
2022/12/04 06:40:13;;;;;;;16.52;10.88;;;3.60;99.90;;;;;;5017150;28;20447;-65
2022/12/04 06:42:40;;;;;;;19.10;10.27;;;3.60;99.90;;;;;;5030103;28;20084;-65
2022/12/04 06:45:08;;;;;;;18.88;11.20;;;3.60;99.90;;;;;;5022603;28;20100;-65
2022/12/04 06:47:35;;;;;;;18.30;10.75;;;3.60;99.90;;;;;;5026032;28;20045;-64
2022/12/04 06:50:03;;;;;;;15.95;10.43;;;3.60;99.90;;;;;;5028802;28;20046;-65
2022/12/04 06:52:34;;;;;;;17.13;10.73;;;3.60;99.90;;;;;;5028467;28;20044;-65
2022/12/04 06:55:01;;;;;;;14.75;9.82;;;3.70;99.90;;;;;;5029559;28;20486;-65
2022/12/04 06:57:28;;;;;;;17.40;9.98;;;3.70;99.90;;;;;;5026822;28;20137;-65
2022/12/04 06:59:55;;;;;;;20.98;11.82;;;3.60;99.90;;;;;;5030031;28;20041;-65
2022/12/04 07:02:23;;;;;;;19.02;11.43;;;3.70;99.90;;;;;;5029575;28;20054;-64
2022/12/04 07:04:55;;;;;;;19.17;11.68;;;3.60;99.90;;;;;;5030190;28;20049;-64
2022/12/04 07:07:22;;;;;;;18.40;11.52;;;3.60;99.90;;;;;;4992892;28;20042;-64
2022/12/04 07:09:50;;;;;;;15.82;10.35;;;3.60;99.90;;;;;;5025393;28;20488;-65
2022/12/04 07:12:17;;;;;;;20.35;11.90;;;3.60;99.90;;;;;;5028300;28;20049;-65
2022/12/04 07:14:44;;;;;;;19.48;11.38;;;3.60;99.90;;;;;;5027281;28;20052;-65
2022/12/04 07:17:11;;;;;;;17.65;11.20;;;3.60;99.90;;;;;;5014344;28;20424;-64
2022/12/04 07:19:39;;;;;;;16.40;10.25;;;3.60;99.90;;;;;;5020863;28;20034;-65
2022/12/04 07:22:07;;;;;;;17.08;10.45;;;3.60;99.90;;;;;;5017597;28;20037;-66
2022/12/04 07:24:36;;;;;;;17.02;10.35;;;3.60;99.90;;;;;;5015658;28;20041;-65
2022/12/04 07:27:03;;;;;;;15.90;9.98;;;3.70;99.90;;;;;;5028666;28;20037;-64
2022/12/04 07:29:31;;;;;;;15.48;9.93;;;3.60;99.90;;;;;;5023146;28;20045;-64
2022/12/04 07:31:58;;;;;;;16.80;10.05;;;3.70;99.90;;;;;;5028306;28;20494;-65
2022/12/04 07:34:25;;;;;;;14.63;9.75;;;3.70;99.90;;;;;;5025302;28;20519;-65
2022/12/04 07:36:53;;;;;;;18.77;9.77;;;3.70;99.90;;;;;;5026567;28;20061;-66
2022/12/04 07:39:20;;;;;;;17.00;10.02;;;3.80;99.90;;;;;;5002053;28;20508;-66
2022/12/04 07:41:47;;;;;;;16.67;10.40;;;3.80;99.90;;;;;;5000307;28;20069;-65
2022/12/04 07:44:15;;;;;;;15.30;9.55;;;3.80;99.90;;;;;;5015616;28;20056;-64
2022/12/04 07:46:42;;;;;;;14.02;8.90;;;3.90;99.90;;;;;;5014774;28;20037;-63
2022/12/04 07:49:11;;;;;;;16.42;10.15;;;3.80;99.90;;;;;;4996920;28;20065;-65
2022/12/04 07:51:39;;;;;;;26.67;15.55;;;3.90;99.90;;;;;;5014210;28;20118;-65
2022/12/04 07:54:07;;;;;;;16.13;10.07;;;3.90;99.90;;;;;;4997077;28;20053;-64
2022/12/04 07:56:34;;;;;;;16.17;10.00;;;3.90;99.90;;;;;;5012889;28;20046;-68
2022/12/04 07:59:02;;;;;;;14.60;9.52;;;3.90;99.90;;;;;;5022499;28;20049;-65
2022/12/04 08:01:30;;;;;;;15.85;9.60;;;4.00;99.90;;;;;;5015436;28;20045;-66
2022/12/04 08:03:58;;;;;;;14.55;8.98;;;4.00;99.90;;;;;;5022176;28;20074;-68
2022/12/04 08:06:28;;;;;;;14.70;8.88;;;4.10;99.90;;;;;;5018507;28;20505;-68
2022/12/04 08:08:56;;;;;;;18.52;10.23;;;4.10;99.90;;;;;;5022388;28;20061;-67
2022/12/04 08:11:25;;;;;;;14.75;9.68;;;4.10;99.90;;;;;;5007259;28;20396;-67
2022/12/04 08:13:56;;;;;;;12.50;8.25;;;4.10;99.90;;;;;;5028330;28;20056;-68
2022/12/04 08:16:24;;;;;;;15.13;9.33;;;4.20;99.90;;;;;;5008341;28;20560;-65
2022/12/04 08:18:52;;;;;;;16.83;9.93;;;4.20;99.90;;;;;;5011419;28;20048;-66
2022/12/04 08:21:22;;;;;;;15.60;10.27;;;4.20;99.90;;;;;;5017707;28;20045;-69
2022/12/04 08:23:52;;;;;;;14.48;8.65;;;4.20;99.90;;;;;;5008196;28;20046;-67
2022/12/04 08:26:21;;;;;;;15.20;9.98;;;4.30;99.90;;;;;;5008068;28;20053;-66
2022/12/04 08:28:51;;;;;;;16.02;9.55;;;4.30;99.90;;;;;;5014656;28;20046;-66
2022/12/04 08:31:21;;;;;;;15.38;9.55;;;4.30;99.90;;;;;;5032438;28;20494;-66
2022/12/04 08:33:50;;;;;;;16.05;9.73;;;4.30;99.90;;;;;;5018863;28;20068;-67
2022/12/04 08:36:19;;;;;;;16.00;9.35;;;4.30;99.90;;;;;;5002881;28;20104;-67
2022/12/04 08:38:47;;;;;;;14.45;8.65;;;4.30;99.90;;;;;;5019750;28;20049;-68
2022/12/04 08:41:20;;;;;;;15.70;9.70;;;4.30;99.90;;;;;;5017353;28;20389;-68
2022/12/04 08:43:47;;;;;;;21.25;12.05;;;4.30;99.90;;;;;;5019088;28;20041;-68
2022/12/04 08:46:16;;;;;;;14.57;9.60;;;4.40;99.90;;;;;;5016365;28;20569;-68
2022/12/04 08:48:44;;;;;;;14.32;9.50;;;4.40;99.90;;;;;;5028388;28;20092;-67
2022/12/04 08:51:18;;;;;;;15.93;9.05;;;4.40;99.90;;;;;;5027414;28;20049;-68
2022/12/04 08:53:45;;;;;;;16.85;9.63;;;4.40;99.90;;;;;;5030086;28;20041;-67
2022/12/04 08:56:13;;;;;;;16.42;9.90;;;4.50;99.90;;;;;;5027601;28;20045;-68
2022/12/04 08:58:40;;;;;;;17.33;10.40;;;4.50;99.90;;;;;;5028989;28;20484;-68
2022/12/04 09:01:13;;;;;;;16.08;9.90;;;4.60;99.90;;;;;;5027636;28;20034;-69
2022/12/04 09:03:41;;;;;;;17.27;9.55;;;4.60;99.90;;;;;;5028865;28;20416;-69
2022/12/04 09:06:11;;;;;;;19.50;11.30;;;4.60;99.90;;;;;;5014539;28;20065;-66
2022/12/04 09:08:40;;;;;;;21.20;11.15;;;4.70;99.90;;;;;;5019524;28;20050;-68
2022/12/04 09:11:13;;;;;;;15.02;9.73;;;4.80;99.90;;;;;;5017557;28;20046;-67
2022/12/04 09:13:41;;;;;;;17.50;10.27;;;4.80;99.90;;;;;;5016092;28;20054;-67
2022/12/04 09:16:12;;;;;;;15.98;9.73;;;4.90;99.90;;;;;;5023766;28;20049;-67
2022/12/04 09:18:40;;;;;;;15.50;9.30;;;4.90;99.90;;;;;;5013880;28;20563;-66
2022/12/04 09:21:09;;;;;;;14.40;9.30;;;5.00;99.90;;;;;;5012882;28;20057;-69
2022/12/04 09:23:38;;;;;;;14.10;9.07;;;5.10;99.90;;;;;;5012391;28;20041;-68
2022/12/04 09:26:18;;;;;;;14.00;8.95;;;5.10;99.90;;;;;;5025977;28;20145;-67
2022/12/04 09:28:46;;;;;;;24.90;15.02;;;5.10;99.90;;;;;;5021477;28;20061;-66
2022/12/04 09:31:14;;;;;;;29.73;16.63;;;5.10;99.90;;;;;;5019962;28;20045;-67
2022/12/04 09:33:41;;;;;;;18.52;10.65;;;5.10;99.90;;;;;;5013241;28;20045;-67
2022/12/04 09:36:14;;;;;;;16.15;9.95;;;5.10;99.90;;;;;;5027056;28;20044;-67
2022/12/04 09:38:46;;;;;;;17.70;10.20;;;5.10;99.90;;;;;;5016347;28;20037;-68
2022/12/04 09:41:36;;;;;;;15.15;9.57;;;5.10;99.90;;;;;;5009804;28;20046;-66
2022/12/04 09:44:20;;;;;;;15.40;9.40;;;5.10;99.90;;;;;;5015502;28;20469;-67
2022/12/04 09:47:13;;;;;;;16.20;10.02;;;5.20;99.90;;;;;;5022582;28;20046;-66
2022/12/04 09:49:48;;;;;;;16.20;10.15;;;5.20;99.90;;;;;;5004889;28;20060;-69
2022/12/04 09:52:36;;;;;;;14.27;8.82;;;5.30;99.90;;;;;;4989472;28;20081;-66
2022/12/04 09:55:09;;;;;;;15.45;9.25;;;5.50;99.90;;;;;;5029856;28;20049;-68
2022/12/04 09:57:45;;;;;;;13.15;9.07;;;5.70;99.90;;;;;;5030478;28;20484;-67
2022/12/04 10:00:16;;;;;;;16.13;9.63;;;5.70;99.90;;;;;;4998379;28;20042;-67
2022/12/04 10:02:53;;;;;;;14.98;9.10;;;5.70;99.90;;;;;;5018516;28;20526;-68
2022/12/04 10:05:38;;;;;;;13.82;8.90;;;5.70;99.90;;;;;;5019932;28;20531;-68
2022/12/04 10:08:27;;;;;;;13.68;8.82;;;5.80;99.90;;;;;;5030014;28;20124;-73
2022/12/04 10:11:13;;;;;;;14.18;9.32;;;5.80;99.90;;;;;;5016431;28;20053;-67
2022/12/04 10:14:03;;;;;;;14.40;9.15;;;5.90;99.90;;;;;;5009925;28;20425;-67
2022/12/04 10:16:33;;;;;;;16.70;10.52;;;5.80;99.90;;;;;;5024066;28;20041;-67
2022/12/04 10:19:19;;;;;;;14.68;9.57;;;5.90;99.90;;;;;;5010897;28;20523;-68
2022/12/04 10:22:23;;;;;;;18.63;12.05;;;6.00;99.90;;;;;;5025434;28;20044;-67
2022/12/04 10:24:53;;;;;;;16.45;10.52;;;6.00;99.90;;;;;;4998198;28;20416;-66
2022/12/04 10:27:50;;;;;;;16.85;10.15;;;6.10;99.90;;;;;;5017060;28;20590;-69
2022/12/04 10:30:25;;;;;;;15.10;9.65;;;6.20;99.90;;;;;;5025974;28;20390;-67
2022/12/04 10:33:18;;;;;;;14.55;9.60;;;6.20;99.90;;;;;;5015874;28;20104;-66
2022/12/04 10:35:53;;;;;;;12.68;8.82;;;6.20;99.90;;;;;;5010233;28;20069;-67
2022/12/04 10:38:57;;;;;;;14.50;9.00;;;6.20;99.90;;;;;;5010126;28;20096;-66
2022/12/04 10:41:58;;;;;;;12.73;8.35;;;6.20;99.90;;;;;;5002828;28;20057;-68
2022/12/04 10:44:27;;;;;;;12.60;8.50;;;6.20;99.90;;;;;;5014844;28;20046;-66
2022/12/04 10:47:01;;;;;;;13.07;8.88;;;6.20;99.90;;;;;;4982467;28;20137;-68
2022/12/04 10:49:32;;;;;;;13.10;8.63;;;6.30;99.90;;;;;;5025086;28;20115;-67
2022/12/04 10:51:59;;;;;;;15.15;9.15;;;6.20;99.90;;;;;;5021635;28;20405;-67
2022/12/04 10:54:53;;;;;;;13.25;8.40;;;6.20;99.90;;;;;;5020906;28;20249;-67
2022/12/04 10:57:20;;;;;;;19.48;11.25;;;6.30;99.90;;;;;;5020791;28;20049;-67
2022/12/04 10:59:55;;;;;;;23.75;14.02;;;6.30;99.90;;;;;;5016583;28;20111;-67
2022/12/04 11:02:28;;;;;;;19.08;11.45;;;6.30;99.90;;;;;;5003832;28;20068;-68
2022/12/04 11:04:58;;;;;;;14.35;8.80;;;6.30;99.90;;;;;;5012693;28;20132;-66
2022/12/04 11:07:28;;;;;;;13.73;9.20;;;6.30;99.90;;;;;;5027994;28;20439;-67
2022/12/04 11:10:17;;;;;;;12.52;7.95;;;6.30;99.90;;;;;;5027270;28;20045;-68
2022/12/04 11:12:56;;;;;;;11.13;7.85;;;6.30;99.90;;;;;;4999232;28;20421;-67
2022/12/04 11:15:24;;;;;;;13.23;8.02;;;6.30;99.90;;;;;;5019416;28;20504;-67
2022/12/04 11:17:51;;;;;;;13.82;8.07;;;6.30;99.90;;;;;;5023713;28;20437;-68
2022/12/04 11:20:23;;;;;;;12.70;8.48;;;6.40;99.90;;;;;;5027282;28;20076;-66
2022/12/04 11:22:56;;;;;;;12.35;8.23;;;6.50;99.90;;;;;;5010556;28;20601;-68
2022/12/04 11:25:34;;;;;;;11.25;7.53;;;6.50;99.90;;;;;;5026321;28;20073;-66
2022/12/04 11:28:03;;;;;;;11.50;7.15;;;6.70;99.90;;;;;;5007367;28;20045;-67
2022/12/04 11:30:32;;;;;;;12.43;8.18;;;6.70;99.90;;;;;;5015132;28;20115;-68
2022/12/04 11:33:00;;;;;;;13.23;8.52;;;6.80;99.90;;;;;;5024645;28;20115;-68
2022/12/04 11:35:29;;;;;;;12.52;7.95;;;6.80;99.90;;;;;;5009329;28;20485;-67
2022/12/04 11:37:59;;;;;;;12.10;8.35;;;6.80;99.90;;;;;;5021668;28;20050;-68
2022/12/04 11:40:27;;;;;;;14.52;9.32;;;6.80;99.90;;;;;;5017288;28;20042;-67
2022/12/04 11:43:16;;;;;;;10.60;7.78;;;6.80;99.90;;;;;;5006758;28;20499;-67
2022/12/04 11:45:56;;;;;;;10.95;7.55;;;6.70;99.90;;;;;;5012257;28;20053;-67
2022/12/04 11:48:24;;;;;;;15.15;8.57;;;6.60;99.90;;;;;;5021863;28;20389;-69
2022/12/04 11:51:13;;;;;;;16.17;9.60;;;6.60;99.90;;;;;;5018879;28;20100;-67
2022/12/04 11:54:01;;;;;;;16.05;10.65;;;6.50;99.90;;;;;;5005399;28;20057;-69
2022/12/04 11:56:32;;;;;;;13.63;9.43;;;6.50;99.90;;;;;;5015959;28;20135;-68
2022/12/04 11:59:13;;;;;;;13.60;8.40;;;6.60;99.90;;;;;;5018360;28;20045;-66
2022/12/04 12:02:20;;;;;;;13.77;8.23;;;6.50;99.90;;;;;;5015221;28;20876;-68
2022/12/04 12:04:47;;;;;;;11.05;7.90;;;6.50;99.90;;;;;;5007163;28;20072;-67
2022/12/04 12:07:46;;;;;;;12.55;8.27;;;6.60;99.90;;;;;;4983477;28;20160;-66
2022/12/04 12:10:21;;;;;;;17.83;9.93;;;6.60;99.90;;;;;;4974295;28;20054;-67
2022/12/04 12:13:10;;;;;;;13.52;8.75;;;6.60;99.90;;;;;;4999678;28;20050;-67
2022/12/04 12:15:50;;;;;;;17.90;9.70;;;6.60;99.90;;;;;;4971496;28;20057;-67
2022/12/04 12:18:32;;;;;;;12.98;8.30;;;6.60;99.90;;;;;;4976741;28;20153;-66
2022/12/04 12:21:00;;;;;;;;;;;6.70;99.90;;;;;;4972444;28;20039;-68
2022/12/04 12:23:48;;;;;;;12.77;8.55;;;6.70;99.90;;;;;;4993833;28;19925;-67
2022/12/04 12:26:17;;;;;;;13.05;8.68;;;6.70;99.90;;;;;;5008356;28;20065;-68
2022/12/04 12:28:56;;;;;;;13.02;9.02;;;6.70;99.90;;;;;;5009071;28;20148;-67
2022/12/04 12:31:36;;;;;;;13.48;8.63;;;6.60;99.90;;;;;;4976147;28;20073;-67
2022/12/04 12:34:12;;;;;;;14.00;8.95;;;6.70;99.90;;;;;;4984077;28;20045;-68
2022/12/04 12:36:43;;;;;;;13.88;8.60;;;6.70;99.90;;;;;;4990338;28;20397;-69
2022/12/04 12:39:13;;;;;;;15.93;9.85;;;6.70;99.90;;;;;;5013431;28;20052;-68
2022/12/04 12:41:51;;;;;;;14.10;9.57;;;6.70;99.90;;;;;;5031216;28;20052;-67
2022/12/04 12:44:34;;;;;;;16.05;10.63;;;6.60;99.90;;;;;;5024283;28;20526;-68
2022/12/04 12:47:08;;;;;;;13.48;8.85;;;6.70;99.90;;;;;;5026275;28;20057;-67
2022/12/04 12:49:57;;;;;;;14.32;8.98;;;6.70;99.90;;;;;;5031497;28;20072;-67
2022/12/04 12:52:33;;;;;;;12.98;8.38;;;6.70;99.90;;;;;;5005743;28;20080;-69
2022/12/04 12:55:14;;;;;;;12.05;8.40;;;6.70;99.90;;;;;;5025495;28;20046;-68
2022/12/04 12:57:46;;;;;;;11.52;8.38;;;6.80;99.90;;;;;;5027427;28;20515;-66
2022/12/04 13:00:17;;;;;;;14.65;8.70;;;6.80;99.90;;;;;;5031243;28;20499;-68
2022/12/04 13:03:00;;;;;;;16.15;10.15;;;6.80;99.90;;;;;;5040060;28;20038;-68
2022/12/04 13:05:42;;;;;;;14.02;9.38;;;6.80;99.90;;;;;;5030588;28;20045;-67
2022/12/04 13:08:30;;;;;;;18.08;11.23;;;6.80;99.90;;;;;;5029819;28;20041;-68
2022/12/04 13:11:18;;;;;;;15.57;9.05;;;6.70;99.90;;;;;;5026599;28;20041;-67
2022/12/04 13:13:50;;;;;;;16.02;8.93;;;6.80;99.90;;;;;;5024613;28;20473;-69
2022/12/04 13:16:36;;;;;;;13.32;8.85;;;6.80;99.90;;;;;;5022551;28;20606;-67
2022/12/04 13:19:13;;;;;;;14.07;9.57;;;6.70;99.90;;;;;;5019990;28;20045;-67
2022/12/04 13:21:51;;;;;;;12.90;8.95;;;6.80;99.90;;;;;;5015476;28;20056;-70
2022/12/04 13:24:21;;;;;;;13.65;8.75;;;6.70;99.90;;;;;;5023773;28;20050;-66